Tijuana, BCN, Mexico
Current Conditions -  °F | °C
As of 11:44 AM on Saturday 20 Dec 2014 (Local Time) from MMTJ Reporting Station
Broken Clouds Broken Clouds  
Wind Chill: 61°   Ceiling: 20000
Heat Index: 61°   Visibility: 7mi
Dew Point: 46°   Wind: 7mph
Humidity: 59%   Direction: 310°NW
Pressure: 30.19"   Gusts: NA
Location:  32.53°N, 117.02°W
Report Text: MMTJ 201944Z 31006KT 7SM BKN200 16/08 A3019 RMK 8/002 HZY
Loading
Personal Weather Stations






























Interactive Weather Map New forecast layout! Learn more

10-Day Weather Forecast

Advertisements
Track Severe Weather on mobile